Artesian, South Dakota
Current Conditions -  °F | °C
As of 4:53 PM on Tuesday 21 Oct 2014 (Local Time) from KMHE Reporting Station
Clear Clear  
Wind Chill: 27°   Ceiling: Unl
Heat Index: 27°   Visibility: 10mi
Dew Point:   Wind: 21mph
Humidity: 21%   Direction: 170°S
Pressure: 29.89"   Gusts: 31mph
Location:  44.01°N, 97.92°W
Report Text: KMHE 212153Z AUTO 17018G27KT 10SM CLR 27/03 A2989 RMK AO2 PK WND 18029/2122 SLP118 T02670028
Loading
Personal Weather Stations






























Interactive Weather Map
Tropical Storm Tracking
New forecast layout! Learn more

10-Day Weather Forecast

Advertisements
Track Severe Weather on mobile